Terminal Aerodrome Forecast
Issued by NWS

Home | Current Version | Previous Version | Text Only | Print | Product List | Glossary On
Versions: 1 2 3 4 5 6 7 8 9 10 11 12 13 14 15 16 17 18 19 20 21 22 23 24 25 26 27 28 29 30 31 32 33 34 35 36 37 38 39 40 41
951
FTUS43 KDVN 272059 AAA
TAFCID
TAF AMD
KCID 272059Z 2721/2818 35006KT P6SM OVC009
     FM272200 36005KT P6SM OVC014
     FM280400 01005KT 4SM BR OVC009
     FM281100 01005KT 1SM BR OVC004
     FM281500 05006KT 5SM BR OVC012=

USA.gov is the U.S. government's official web portal to all federal, state and local government web resources and services.